TimeCDT,TemperatureF,Dew PointF,Humidity,Sea Level PressureIn,VisibilityMPH,Wind Direction,Wind SpeedMPH,Gust SpeedMPH,PrecipitationIn,Events,Conditions,WindDirDegrees,DateUTC
12:15 AM,54.5,46.0,73,29.73,10.0,East,3.5,-,N/A,,Clear,90,2012-10-16 05:15:00
12:35 AM,53.2,46.4,78,29.71,10.0,Calm,Calm,-,N/A,,Clear,0,2012-10-16 05:35:00
12:55 AM,54.1,46.4,75,29.70,10.0,Calm,Calm,-,N/A,,Clear,0,2012-10-16 05:55:00
1:15 AM,55.8,47.3,73,29.70,10.0,Calm,Calm,-,N/A,,Clear,0,2012-10-16 06:15:00
1:35 AM,53.4,46.9,79,29.69,10.0,Calm,Calm,-,N/A,,Clear,0,2012-10-16 06:35:00
1:55 AM,55.4,47.7,75,29.69,10.0,Calm,Calm,-,N/A,,Clear,0,2012-10-16 06:55:00
2:15 AM,53.4,47.3,80,29.68,10.0,Calm,Calm,-,N/A,,Clear,0,2012-10-16 07:15:00
2:35 AM,52.5,47.3,82,29.67,10.0,Calm,Calm,-,N/A,,Clear,0,2012-10-16 07:35:00
2:55 AM,55.4,48.4,77,29.66,10.0,Calm,Calm,-,N/A,,Clear,0,2012-10-16 07:55:00
3:15 AM,55.0,48.4,78,29.65,10.0,WSW,3.5,-,N/A,,Clear,250,2012-10-16 08:15:00
3:35 AM,54.7,48.6,80,29.65,10.0,SW,4.6,-,N/A,,Clear,230,2012-10-16 08:35:00
3:55 AM,54.9,48.4,79,29.64,10.0,Calm,Calm,-,N/A,,Clear,0,2012-10-16 08:55:00
4:15 AM,54.5,48.4,80,29.64,10.0,SW,5.8,-,N/A,,Clear,230,2012-10-16 09:15:00
4:35 AM,54.9,48.4,79,29.64,10.0,WSW,8.1,-,N/A,,Clear,240,2012-10-16 09:35:00
4:55 AM,54.7,48.4,79,29.64,10.0,Calm,Calm,-,N/A,,Clear,0,2012-10-16 09:55:00
5:15 AM,53.8,48.2,81,29.63,10.0,Calm,Calm,-,N/A,,Clear,0,2012-10-16 10:15:00
5:35 AM,52.9,48.2,84,29.63,10.0,West,4.6,-,N/A,,Clear,270,2012-10-16 10:35:00
5:55 AM,52.7,47.7,83,29.62,10.0,SSW,3.5,-,N/A,,Clear,200,2012-10-16 10:55:00
6:15 AM,53.6,48.4,82,29.61,10.0,WSW,5.8,-,N/A,,Clear,240,2012-10-16 11:15:00
6:35 AM,53.8,48.4,82,29.62,10.0,WSW,5.8,-,N/A,,Clear,240,2012-10-16 11:35:00
7:15 AM,54.0,48.2,81,29.63,10.0,WSW,6.9,-,N/A,,Clear,250,2012-10-16 12:15:00
7:35 AM,53.8,47.8,80,29.64,10.0,WSW,9.2,-,N/A,,Clear,240,2012-10-16 12:35:00
7:55 AM,53.8,47.7,80,29.64,10.0,WSW,9.2,-,N/A,,Clear,240,2012-10-16 12:55:00
8:15 AM,52.9,47.3,81,29.64,10.0,WSW,8.1,-,N/A,,Clear,250,2012-10-16 13:15:00
8:35 AM,53.6,46.4,77,29.65,10.0,West,8.1,-,N/A,,Clear,260,2012-10-16 13:35:00
8:55 AM,55.0,46.2,72,29.66,10.0,West,6.9,-,N/A,,Clear,260,2012-10-16 13:55:00
9:15 AM,56.7,45.9,67,29.66,10.0,West,5.8,-,N/A,,Clear,280,2012-10-16 14:15:00
9:35 AM,59.9,44.6,57,29.67,10.0,WNW,8.1,-,N/A,,Clear,290,2012-10-16 14:35:00
9:55 AM,63.0,45.5,53,29.67,10.0,NW,9.2,-,N/A,,Clear,320,2012-10-16 14:55:00
10:15 AM,62.6,44.8,52,29.67,10.0,NW,6.9,-,N/A,,Clear,310,2012-10-16 15:15:00
10:35 AM,65.7,46.0,49,29.67,10.0,NW,10.4,-,N/A,,Clear,320,2012-10-16 15:35:00
10:55 AM,70.3,45.0,40,29.66,10.0,NNW,11.5,17.3,N/A,,Clear,340,2012-10-16 15:55:00
11:15 AM,69.8,44.6,40,29.67,10.0,NNW,9.2,16.1,N/A,,Clear,330,2012-10-16 16:15:00
11:35 AM,71.6,45.1,39,29.67,10.0,NW,11.5,16.1,N/A,,Clear,320,2012-10-16 16:35:00
11:55 AM,74.3,44.1,34,29.65,10.0,North,10.4,-,N/A,,Clear,360,2012-10-16 16:55:00
12:15 PM,75.9,43.3,31,29.64,10.0,North,12.7,20.7,N/A,,Clear,10,2012-10-16 17:15:00
12:35 PM,77.0,43.0,30,29.64,10.0,North,10.4,16.1,N/A,,Clear,350,2012-10-16 17:35:00
12:55 PM,77.9,42.4,28,29.63,10.0,NNW,5.8,-,N/A,,Clear,330,2012-10-16 17:55:00
1:15 PM,78.8,42.4,27,29.61,10.0,North,4.6,-,N/A,,Clear,350,2012-10-16 18:15:00
1:35 PM,78.8,41.7,27,29.59,10.0,North,4.6,-,N/A,,Clear,10,2012-10-16 18:35:00
1:55 PM,79.7,41.7,26,29.58,10.0,NNW,4.6,-,N/A,,Clear,340,2012-10-16 18:55:00
2:15 PM,79.7,41.4,26,29.58,10.0,NW,4.6,-,N/A,,Clear,320,2012-10-16 19:15:00
2:35 PM,80.2,41.0,25,29.56,7.0,WNW,5.8,-,N/A,,Clear,300,2012-10-16 19:35:00
2:55 PM,80.6,40.6,24,29.56,10.0,NNW,5.8,-,N/A,,Clear,330,2012-10-16 19:55:00
3:15 PM,80.6,39.7,23,29.55,10.0,NW,3.5,-,N/A,,Clear,320,2012-10-16 20:15:00
3:35 PM,80.4,40.1,24,29.54,10.0,West,8.1,-,N/A,,Clear,260,2012-10-16 20:35:00
3:55 PM,80.8,39.7,23,29.54,10.0,West,3.5,-,N/A,,Clear,260,2012-10-16 20:55:00
4:15 PM,80.8,40.5,24,29.54,10.0,WSW,5.8,-,N/A,,Clear,250,2012-10-16 21:15:00
4:35 PM,80.8,40.3,24,29.53,10.0,SW,4.6,-,N/A,,Clear,230,2012-10-16 21:35:00
4:55 PM,81.0,41.2,24,29.52,10.0,WSW,4.6,-,N/A,,Clear,250,2012-10-16 21:55:00
5:15 PM,79.7,39.4,24,29.51,10.0,SW,3.5,-,N/A,,Clear,230,2012-10-16 22:15:00
5:35 PM,78.1,40.3,26,29.50,10.0,SSW,4.6,-,N/A,,Clear,210,2012-10-16 22:35:00
5:55 PM,77.4,41.7,28,29.50,10.0,SW,3.5,-,N/A,,Clear,220,2012-10-16 22:55:00
6:15 PM,75.4,42.1,30,29.50,10.0,SSW,4.6,-,N/A,,Clear,210,2012-10-16 23:15:00
6:35 PM,71.1,45.0,39,29.50,10.0,SW,3.5,-,N/A,,Clear,220,2012-10-16 23:35:00
6:55 PM,71.1,44.1,38,29.50,10.0,SW,4.6,-,N/A,,Clear,220,2012-10-16 23:55:00
7:15 PM,66.7,45.9,47,29.50,10.0,SSW,4.6,-,N/A,,Clear,210,2012-10-17 00:15:00
7:35 PM,67.1,45.1,45,29.50,10.0,SSW,4.6,-,N/A,,Clear,210,2012-10-17 00:35:00
7:55 PM,68.9,45.7,43,29.50,10.0,SSW,6.9,-,N/A,,Clear,210,2012-10-17 00:55:00
8:15 PM,68.4,46.6,46,29.50,10.0,SSW,6.9,-,N/A,,Clear,210,2012-10-17 01:15:00
8:35 PM,68.9,46.4,44,29.49,10.0,SSW,8.1,-,N/A,,Clear,200,2012-10-17 01:35:00
8:55 PM,67.3,46.9,48,29.48,10.0,South,8.1,-,N/A,,Clear,190,2012-10-17 01:55:00
9:15 PM,67.1,47.8,50,29.47,10.0,South,6.9,-,N/A,,Clear,190,2012-10-17 02:15:00
9:35 PM,67.5,48.4,50,29.46,10.0,South,9.2,-,N/A,,Clear,190,2012-10-17 02:35:00
9:55 PM,66.2,49.1,54,29.46,10.0,South,9.2,-,N/A,,Clear,190,2012-10-17 02:55:00
10:35 PM,66.2,48.6,53,29.46,10.0,South,5.8,-,N/A,,Clear,190,2012-10-17 03:35:00
10:55 PM,66.6,48.2,52,29.45,10.0,South,8.1,-,N/A,,Clear,190,2012-10-17 03:55:00
11:15 PM,65.7,48.7,54,29.44,10.0,South,6.9,-,N/A,,Clear,190,2012-10-17 04:15:00
11:35 PM,65.3,48.6,55,29.44,10.0,SSW,5.8,-,N/A,,Clear,200,2012-10-17 04:35:00
11:55 PM,64.4,48.6,56,29.44,10.0,South,6.9,-,N/A,,Clear,190,2012-10-17 04:55:00